Time;durP1;ratioP1;P1;durP2;ratioP2;P2;SDS_P1;SDS_P2;PMS_P1;PMS_P2;Temp;Humidity;BMP_temperature;BMP_pressure;BME280_temperature;BME280_humidity;BME280_pressure;Samples;Min_cycle;Max_cycle;Signal;HPM_P1;HPM_P2
2021/07/29 00:01:23;;;;;;;8.00;2.70;;;18.10;96.60;;;;;;5955992;39;20064;-75
2021/07/29 00:05:25;;;;;;;;;;;18.00;96.60;;;;;;5963557;39;20333;-76
2021/07/29 00:09:27;;;;;;;;;;;18.00;96.00;;;;;;5964708;39;20017;-78
2021/07/29 00:13:29;;;;;;;8.40;2.80;;;17.90;96.00;;;;;;5967706;39;19939;-80
2021/07/29 00:21:48;;;;;;;11.32;2.88;;;17.80;96.60;;;;;;5965386;39;20042;-74
2021/07/29 00:25:49;;;;;;;10.10;3.70;;;17.80;96.80;;;;;;5965104;39;20419;-75
2021/07/29 00:29:55;;;;;;;;;;;17.70;96.70;;;;;;5967531;39;20132;-83
2021/07/29 00:33:56;;;;;;;12.63;3.08;;;17.70;96.10;;;;;;5966243;39;19950;-75
2021/07/29 00:38:01;;;;;;;;;;;17.70;96.70;;;;;;5964409;39;20056;-75
2021/07/29 00:42:03;;;;;;;6.70;2.75;;;17.60;96.00;;;;;;5966410;39;20056;-76
2021/07/29 00:46:05;;;;;;;11.50;3.47;;;17.00;96.40;;;;;;5966287;39;20125;-77
2021/07/29 00:50:10;;;;;;;9.02;2.70;;;17.60;96.70;;;;;;5963437;39;20052;-75
2021/07/29 00:54:13;;;;;;;9.85;3.28;;;17.60;96.80;;;;;;5965456;39;20039;-76
2021/07/29 00:58:15;;;;;;;7.88;3.47;;;17.50;96.80;;;;;;5965292;39;20045;-75
2021/07/29 01:02:18;;;;;;;;;;;17.50;96.90;;;;;;5965316;39;20051;-74
2021/07/29 01:06:21;;;;;;;10.15;3.67;;;17.40;96.30;;;;;;5964775;39;20335;-74
2021/07/29 01:10:23;;;;;;;9.43;3.35;;;17.40;97.00;;;;;;5967168;39;20059;-76
2021/07/29 01:14:25;;;;;;;;;;;17.30;97.00;;;;;;5970610;39;20059;-74
2021/07/29 01:18:27;;;;;;;7.65;4.07;;;17.30;96.60;;;;;;5967303;39;19959;-75
2021/07/29 01:22:31;;;;;;;10.85;4.40;;;17.20;97.10;;;;;;5968720;39;20319;-76
2021/07/29 01:26:33;;;;;;;11.55;4.50;;;17.20;97.50;;;;;;5966606;39;20032;-75
2021/07/29 01:30:35;;;;;;;10.23;4.43;;;17.20;97.30;;;;;;5968336;39;20056;-75
2021/07/29 01:34:37;;;;;;;9.05;4.55;;;17.20;97.50;;;;;;5969811;39;20304;-76
2021/07/29 01:38:39;;;;;;;13.68;4.90;;;17.20;97.40;;;;;;5969351;39;20342;-75
2021/07/29 01:42:41;;;;;;;;;;;17.10;97.40;;;;;;5970406;39;20349;-74
2021/07/29 01:46:42;;;;;;;11.13;4.87;;;17.10;96.60;;;;;;5966387;39;19932;-74
2021/07/29 01:50:44;;;;;;;;;;;17.10;97.40;;;;;;5964997;39;20101;-77
2021/07/29 01:54:47;;;;;;;15.65;5.32;;;17.10;97.10;;;;;;5968204;39;19943;-71
2021/07/29 01:58:49;;;;;;;13.07;5.82;;;16.90;97.40;;;;;;5965169;39;20058;-73
2021/07/29 02:02:51;;;;;;;15.85;5.50;;;17.00;97.70;;;;;;5965795;39;20056;-73
2021/07/29 02:06:53;;;;;;;13.95;5.18;;;17.00;97.70;;;;;;5968845;39;20043;-72
2021/07/29 02:10:55;;;;;;;8.23;5.20;;;16.90;97.90;;;;;;5958316;39;20060;-73
2021/07/29 02:14:57;;;;;;;15.55;5.63;;;16.90;97.80;;;;;;5963820;39;20431;-73
2021/07/29 02:18:59;;;;;;;9.10;5.10;;;16.90;97.90;;;;;;5968242;39;20292;-72
2021/07/29 02:23:01;;;;;;;12.80;5.20;;;16.90;98.00;;;;;;5966413;39;20047;-72
2021/07/29 02:27:03;;;;;;;10.27;5.45;;;16.90;98.00;;;;;;5965852;39;20076;-72
2021/07/29 02:31:05;;;;;;;;;;;17.40;98.10;;;;;;5968127;39;20384;-72
2021/07/29 02:35:07;;;;;;;12.52;5.03;;;16.80;97.50;;;;;;5968806;39;19944;-73
2021/07/29 02:39:09;;;;;;;10.38;5.10;;;16.80;97.90;;;;;;5965423;39;20055;-74
2021/07/29 02:43:11;;;;;;;13.27;5.05;;;16.90;98.00;;;;;;5953949;39;20048;-73
2021/07/29 02:47:14;;;;;;;;;;;16.80;97.90;;;;;;5956319;39;20055;-73
2021/07/29 02:51:15;;;;;;;9.32;4.63;;;16.80;97.50;;;;;;5950647;39;19960;-73
2021/07/29 02:55:17;;;;;;;7.72;4.35;;;16.80;98.00;;;;;;5956036;39;20113;-73
2021/07/29 02:59:19;;;;;;;10.35;3.78;;;16.60;98.00;;;;;;5959522;39;20108;-73
2021/07/29 03:03:21;;;;;;;12.77;4.97;;;16.70;98.00;;;;;;5967398;39;20097;-73
2021/07/29 03:07:23;;;;;;;;;;;16.70;98.00;;;;;;5967988;39;20050;-72
2021/07/29 03:11:25;;;;;;;11.77;4.80;;;16.70;97.40;;;;;;5968329;39;19940;-73
2021/07/29 03:15:31;;;;;;;11.93;5.10;;;16.70;97.80;;;;;;5963167;39;20059;-73
2021/07/29 03:19:33;;;;;;;11.57;4.55;;;16.60;98.00;;;;;;5966971;39;20245;-73
2021/07/29 03:23:35;;;;;;;10.15;4.63;;;16.60;98.00;;;;;;5969306;39;20051;-72
2021/07/29 03:27:38;;;;;;;11.07;4.28;;;16.60;98.10;;;;;;5955978;39;20050;-72
2021/07/29 03:31:40;;;;;;;19.10;5.45;;;16.60;98.00;;;;;;5964507;39;20626;-74
2021/07/29 03:35:42;;;;;;;;;;;16.60;97.90;;;;;;5968654;39;20043;-74
2021/07/29 03:39:43;;;;;;;12.38;5.18;;;16.50;97.50;;;;;;5967543;39;20335;-74
2021/07/29 03:43:45;;;;;;;9.68;5.07;;;16.50;98.00;;;;;;5964856;39;20059;-73
2021/07/29 03:47:47;;;;;;;11.70;4.68;;;16.40;98.20;;;;;;5969312;39;20072;-73
2021/07/29 03:51:49;;;;;;;11.15;5.70;;;16.40;98.20;;;;;;5965037;39;20055;-73
2021/07/29 03:55:51;;;;;;;9.90;4.57;;;16.40;98.40;;;;;;5963355;39;20059;-71
2021/07/29 03:59:53;;;;;;;9.90;4.60;;;16.40;98.40;;;;;;5963887;39;20112;-72
2021/07/29 04:03:55;;;;;;;9.32;4.70;;;16.60;98.40;;;;;;5960433;39;20461;-73
2021/07/29 04:07:56;;;;;;;15.15;5.07;;;16.30;98.30;;;;;;5960275;39;20059;-73
2021/07/29 04:11:59;;;;;;;10.43;4.60;;;16.40;98.50;;;;;;5957931;39;20046;-72
2021/07/29 04:16:01;;;;;;;;;;;16.30;98.40;;;;;;5965275;39;20097;-71
2021/07/29 04:20:05;;;;;;;8.25;4.28;;;16.30;98.70;;;;;;5966593;39;19982;-73
2021/07/29 04:24:07;;;;;;;10.40;4.50;;;16.40;98.60;;;;;;5963280;39;20109;-73
2021/07/29 04:28:09;;;;;;;14.93;4.00;;;16.40;98.60;;;;;;5962471;39;20397;-73
2021/07/29 04:32:10;;;;;;;9.50;4.50;;;16.40;98.50;;;;;;5966232;39;20040;-73
2021/07/29 04:36:12;;;;;;;7.93;4.00;;;16.50;98.40;;;;;;5965511;39;20055;-73
2021/07/29 04:40:14;;;;;;;8.73;1.60;;;16.40;98.60;;;;;;5967456;39;20118;-74
2021/07/29 04:44:16;;;;;;;3.22;1.10;;;16.40;98.00;;;;;;5964774;39;20051;-72
2021/07/29 04:48:18;;;;;;;5.00;0.95;;;16.10;98.00;;;;;;5965864;39;20106;-73
2021/07/29 04:52:20;;;;;;;2.72;0.77;;;16.00;98.10;;;;;;5961391;39;20056;-72
2021/07/29 04:56:22;;;;;;;3.95;0.95;;;16.00;98.00;;;;;;5964574;39;20060;-72
2021/07/29 05:00:24;;;;;;;5.20;1.23;;;15.80;97.90;;;;;;5959971;39;20429;-72
2021/07/29 05:04:26;;;;;;;6.30;1.50;;;15.80;97.90;;;;;;5961590;39;20140;-71
2021/07/29 05:08:27;;;;;;;3.60;1.00;;;15.80;97.80;;;;;;5964054;39;20047;-72
2021/07/29 05:12:29;;;;;;;6.15;1.70;;;15.90;97.90;;;;;;5963817;39;20043;-72
2021/07/29 05:16:31;;;;;;;7.55;1.60;;;15.90;97.80;;;;;;5967643;39;20097;-73
2021/07/29 05:20:33;;;;;;;;;;;16.00;97.90;;;;;;5967720;39;20056;-75
2021/07/29 05:24:35;;;;;;;6.60;2.20;;;16.00;97.80;;;;;;5961607;39;19931;-75
2021/07/29 05:28:37;;;;;;;7.97;2.47;;;16.10;98.10;;;;;;5959032;39;20064;-74
2021/07/29 05:32:38;;;;;;;8.35;2.15;;;16.10;98.20;;;;;;5957559;39;20051;-73
2021/07/29 05:36:40;;;;;;;9.85;2.10;;;16.20;98.30;;;;;;5951542;39;20652;-71
2021/07/29 05:40:42;;;;;;;8.98;1.98;;;16.30;98.20;;;;;;5947877;39;20059;-72
2021/07/29 05:44:44;;;;;;;7.70;2.08;;;16.40;98.30;;;;;;5946301;39;20157;-72
2021/07/29 05:48:46;;;;;;;10.10;2.20;;;16.40;98.30;;;;;;5947175;39;20644;-73
2021/07/29 05:52:51;;;;;;;5.28;1.90;;;16.40;98.50;;;;;;5946517;39;20327;-72
2021/07/29 05:56:53;;;;;;;7.82;2.05;;;16.40;98.50;;;;;;5948765;39;20413;-72
2021/07/29 06:00:55;;;;;;;7.35;1.70;;;16.40;98.30;;;;;;5946794;39;20396;-73
2021/07/29 06:04:57;;;;;;;4.97;1.75;;;16.40;98.20;;;;;;5936020;39;20088;-72
2021/07/29 06:08:59;;;;;;;8.35;1.70;;;17.00;98.40;;;;;;5952143;39;20347;-74
2021/07/29 06:13:01;;;;;;;8.35;1.52;;;16.50;98.20;;;;;;5957305;39;20047;-74
2021/07/29 06:17:03;;;;;;;8.07;1.70;;;16.40;98.20;;;;;;5947090;39;20110;-73
2021/07/29 06:21:05;;;;;;;;;;;16.60;98.20;;;;;;5944451;39;20092;-74
2021/07/29 06:25:08;;;;;;;5.67;1.40;;;16.60;98.00;;;;;;5947199;39;19955;-75
2021/07/29 06:29:10;;;;;;;7.70;1.70;;;16.70;98.30;;;;;;5942304;39;20471;-75
2021/07/29 06:33:12;;;;;;;8.95;1.92;;;16.80;98.20;;;;;;5951261;39;20056;-74
2021/07/29 06:37:14;;;;;;;9.18;1.75;;;16.90;98.20;;;;;;5941295;39;20071;-73
2021/07/29 06:41:15;;;;;;;5.43;1.17;;;16.80;98.10;;;;;;5940628;39;20121;-73
2021/07/29 06:45:17;;;;;;;4.78;1.10;;;16.80;98.00;;;;;;5950234;39;20059;-74
2021/07/29 06:49:19;;;;;;;6.35;0.88;;;16.80;97.90;;;;;;5950213;39;20138;-73
2021/07/29 06:53:21;;;;;;;4.90;1.08;;;16.70;97.60;;;;;;5948947;39;20052;-71
2021/07/29 06:57:23;;;;;;;5.55;1.02;;;16.70;97.70;;;;;;5948505;39;20056;-72
2021/07/29 07:01:25;;;;;;;5.88;0.93;;;16.50;97.60;;;;;;5946269;39;20421;-71
2021/07/29 07:05:27;;;;;;;6.50;1.08;;;16.30;97.60;;;;;;5945405;39;20064;-72
2021/07/29 07:09:33;;;;;;;7.00;1.63;;;16.10;97.70;;;;;;5948693;39;20064;-71
2021/07/29 07:13:35;;;;;;;5.88;1.10;;;16.10;97.80;;;;;;5944956;39;20051;-72
2021/07/29 07:17:36;;;;;;;6.43;1.08;;;16.00;97.80;;;;;;5946844;39;20048;-73
2021/07/29 07:21:38;;;;;;;6.40;1.00;;;16.00;98.00;;;;;;5944770;39;20057;-72
2021/07/29 07:25:40;;;;;;;;;;;16.00;97.80;;;;;;5937250;39;20520;-73
2021/07/29 07:29:42;;;;;;;5.82;1.20;;;16.20;97.50;;;;;;5946674;39;19944;-76
2021/07/29 07:33:46;;;;;;;7.85;1.10;;;16.20;97.60;;;;;;5948635;39;20630;-76
2021/07/29 07:37:48;;;;;;;8.95;1.20;;;16.30;97.60;;;;;;5948975;39;20527;-77
2021/07/29 07:41:51;;;;;;;8.95;1.80;;;16.10;97.50;;;;;;5943025;39;20078;-77
2021/07/29 07:45:53;;;;;;;7.47;1.23;;;16.70;97.50;;;;;;5944922;39;20833;-74
2021/07/29 07:49:56;;;;;;;7.53;1.30;;;16.80;97.50;;;;;;5949905;39;20336;-75
2021/07/29 07:53:57;;;;;;;9.30;1.88;;;17.00;97.10;;;;;;5963114;39;20510;-74
2021/07/29 07:57:59;;;;;;;8.30;1.05;;;17.60;96.90;;;;;;5958947;39;20059;-74
2021/07/29 08:02:02;;;;;;;6.25;0.80;;;17.00;96.90;;;;;;5951842;39;20056;-73
2021/07/29 08:06:05;;;;;;;5.78;0.90;;;16.60;97.20;;;;;;5943988;39;20045;-73
2021/07/29 08:10:07;;;;;;;4.65;0.73;;;16.30;97.60;;;;;;5945065;39;20104;-72
2021/07/29 08:14:09;;;;;;;4.50;0.80;;;16.20;97.90;;;;;;5944046;39;20063;-73
2021/07/29 08:18:11;;;;;;;5.45;1.20;;;16.20;98.00;;;;;;5944863;39;20041;-73
2021/07/29 08:22:13;;;;;;;10.32;1.40;;;16.10;98.10;;;;;;5944261;39;20115;-74
2021/07/29 08:26:15;;;;;;;6.75;1.20;;;16.10;98.40;;;;;;5946668;39;20029;-72
2021/07/29 08:30:18;;;;;;;;;;;16.00;98.40;;;;;;5945961;39;20059;-73
2021/07/29 08:34:19;;;;;;;4.43;0.88;;;16.00;98.10;;;;;;5965121;39;20296;-76
2021/07/29 08:38:21;;;;;;;4.97;1.13;;;16.00;98.30;;;;;;5957788;39;20044;-75
2021/07/29 08:42:26;;;;;;;5.40;0.90;;;15.90;98.10;;;;;;5960640;39;20055;-73
2021/07/29 08:46:29;;;;;;;2.25;0.55;;;15.90;97.90;;;;;;5961700;39;20047;-74
2021/07/29 08:50:30;;;;;;;;;;;15.90;97.60;;;;;;5965274;39;20063;-73
2021/07/29 08:54:32;;;;;;;7.00;1.33;;;15.90;97.50;;;;;;5962446;39;19940;-75
2021/07/29 08:58:34;;;;;;;7.22;0.95;;;15.80;97.70;;;;;;5963325;39;20044;-74
2021/07/29 09:02:36;;;;;;;2.65;0.80;;;15.60;98.00;;;;;;5963105;39;20080;-74
2021/07/29 09:06:58;;;;;;;3.92;0.70;;;15.40;97.80;;;;;;5961214;39;20060;-73
2021/07/29 09:11:00;;;;;;;4.22;0.50;;;15.20;98.00;;;;;;5961351;39;20063;-75
2021/07/29 09:15:18;;;;;;;3.13;0.77;;;15.10;98.30;;;;;;5961314;39;20085;-73
2021/07/29 09:19:35;;;;;;;4.22;0.70;;;15.20;98.00;;;;;;5963011;39;20419;-75
2021/07/29 09:23:37;;;;;;;6.18;0.80;;;15.20;98.00;;;;;;5962502;39;20257;-73
2021/07/29 09:27:39;;;;;;;3.15;0.90;;;15.30;98.10;;;;;;5962161;39;20329;-71
2021/07/29 09:31:41;;;;;;;5.22;1.02;;;15.30;98.20;;;;;;5959376;39;20040;-71
2021/07/29 09:35:45;;;;;;;8.45;1.50;;;15.30;98.10;;;;;;5964004;39;20055;-71
2021/07/29 09:40:07;;;;;;;3.35;0.90;;;15.30;98.30;;;;;;5963441;39;20157;-70
2021/07/29 09:44:09;;;;;;;;;;;15.30;98.30;;;;;;5964551;39;20164;-71
2021/07/29 09:48:11;;;;;;;7.27;1.50;;;15.20;99.70;;;;;;5964629;39;19979;-73
2021/07/29 09:52:14;;;;;;;6.28;1.10;;;15.00;98.80;;;;;;5966863;39;20055;-75
2021/07/29 09:56:16;;;;;;;6.22;1.00;;;14.70;98.90;;;;;;5968819;39;20092;-75
2021/07/29 10:00:38;;;;;;;8.15;1.48;;;14.80;99.10;;;;;;5967912;39;20114;-75
2021/07/29 10:04:46;;;;;;;6.82;2.15;;;14.70;99.10;;;;;;5968479;39;20404;-75
2021/07/29 10:09:01;;;;;;;6.40;1.45;;;14.50;99.20;;;;;;5970193;39;20088;-73
2021/07/29 10:13:03;;;;;;;10.52;1.60;;;14.50;99.40;;;;;;5972159;39;20367;-76
2021/07/29 10:17:05;;;;;;;;;;;14.50;99.40;;;;;;5967934;39;20056;-74
2021/07/29 10:21:31;;;;;;;16.60;2.40;;;14.40;99.90;;;;;;5966008;39;19947;-75
2021/07/29 10:25:52;;;;;;;12.20;1.73;;;14.30;99.50;;;;;;5968730;39;20039;-75
2021/07/29 10:30:20;;;;;;;9.43;1.52;;;14.50;99.40;;;;;;5962865;39;20084;-78
2021/07/29 10:34:25;;;;;;;9.57;1.67;;;14.30;99.40;;;;;;5961804;39;20051;-76
2021/07/29 10:38:41;;;;;;;6.32;1.58;;;14.30;99.50;;;;;;5973791;39;20357;-75
2021/07/29 10:42:43;;;;;;;9.98;1.52;;;14.30;99.50;;;;;;5955277;39;20104;-73
2021/07/29 10:47:14;;;;;;;8.38;1.05;;;14.40;99.60;;;;;;5961631;39;20055;-74
2021/07/29 10:51:23;;;;;;;8.53;1.10;;;14.60;99.30;;;;;;5955257;39;20132;-76
2021/07/29 10:55:26;;;;;;;9.13;1.38;;;14.70;99.30;;;;;;5966765;39;20133;-77
2021/07/29 10:59:28;;;;;;;;;;;14.80;99.40;;;;;;5967870;39;20056;-75
2021/07/29 11:03:30;;;;;;;15.05;2.80;;;14.90;99.20;;;;;;5950067;39;20009;-73
2021/07/29 11:07:32;;;;;;;17.63;2.20;;;15.10;99.50;;;;;;5947789;39;20044;-75
2021/07/29 11:11:38;;;;;;;14.57;2.15;;;15.30;99.60;;;;;;5948084;39;20048;-74
2021/07/29 11:15:40;;;;;;;16.90;3.42;;;15.40;99.80;;;;;;5946464;39;20134;-73
2021/07/29 11:19:43;;;;;;;;;;;15.40;99.80;;;;;;5941670;39;20339;-73
2021/07/29 11:23:45;;;;;;;17.77;3.33;;;15.60;99.90;;;;;;5946248;39;19986;-75
2021/07/29 11:27:47;;;;;;;17.67;4.00;;;15.50;99.80;;;;;;5938526;39;20443;-72
2021/07/29 11:31:56;;;;;;;17.30;2.95;;;15.50;99.90;;;;;;5964015;39;20044;-76
2021/07/29 11:36:10;;;;;;;17.75;3.17;;;15.40;99.90;;;;;;5963266;39;20445;-75
2021/07/29 11:40:25;;;;;;;17.25;3.03;;;15.40;99.90;;;;;;5965085;39;20070;-75
2021/07/29 11:44:51;;;;;;;14.27;2.65;;;15.50;99.90;;;;;;5960872;39;20575;-73
2021/07/29 11:49:06;;;;;;;13.15;2.63;;;15.80;99.90;;;;;;5940809;39;20089;-71
2021/07/29 11:53:09;;;;;;;8.40;1.60;;;16.20;99.90;;;;;;5957856;39;20051;-74
2021/07/29 11:57:12;;;;;;;5.22;1.10;;;16.40;99.60;;;;;;5942612;39;20362;-68
2021/07/29 12:01:14;;;;;;;6.90;1.30;;;16.30;98.90;;;;;;5944489;39;20128;-65
2021/07/29 12:05:16;;;;;;;5.10;0.80;;;15.90;98.80;;;;;;5941502;39;20131;-68
2021/07/29 12:09:20;;;;;;;9.25;1.63;;;15.60;99.20;;;;;;5938859;39;20088;-69
2021/07/29 12:13:24;;;;;;;5.15;1.30;;;15.40;99.20;;;;;;5938300;39;20284;-66
2021/07/29 12:17:25;;;;;;;2.08;0.77;;;15.00;99.30;;;;;;5946412;39;20136;-67
2021/07/29 12:21:33;;;;;;;7.15;1.45;;;14.80;99.60;;;;;;5951613;39;20056;-70
2021/07/29 12:25:35;;;;;;;10.00;2.17;;;14.70;99.90;;;;;;5937094;39;20052;-72
2021/07/29 12:29:41;;;;;;;7.80;1.80;;;14.70;99.90;;;;;;5936722;39;20056;-70
2021/07/29 12:34:03;;;;;;;4.78;1.30;;;14.60;99.90;;;;;;5947012;39;20044;-67
2021/07/29 12:38:05;;;;;;;5.30;1.23;;;14.60;99.90;;;;;;5937496;39;20141;-68
2021/07/29 12:42:30;;;;;;;5.07;1.42;;;14.50;99.90;;;;;;5954863;39;20438;-67
2021/07/29 12:46:34;;;;;;;4.93;1.60;;;14.50;99.90;;;;;;5952582;39;20175;-67
2021/07/29 12:50:39;;;;;;;5.97;1.50;;;14.60;99.90;;;;;;5947588;39;20048;-68
2021/07/29 12:55:02;;;;;;;7.20;1.40;;;14.90;99.90;;;;;;5948729;39;20700;-70
2021/07/29 12:59:03;;;;;;;;;;;15.30;99.90;;;;;;5950171;39;20546;-67
2021/07/29 13:03:19;;;;;;;6.97;1.60;;;15.30;99.80;;;;;;5954028;39;20029;-68
2021/07/29 13:07:21;;;;;;;9.80;2.17;;;15.60;99.90;;;;;;5957151;39;20909;-69
2021/07/29 13:11:26;;;;;;;9.48;2.03;;;15.90;99.90;;;;;;5955989;39;20645;-67
2021/07/29 13:15:27;;;;;;;12.20;2.15;;;16.10;99.70;;;;;;5959262;39;20080;-67
2021/07/29 13:19:30;;;;;;;11.88;2.70;;;15.60;99.40;;;;;;5955378;39;20090;-67
2021/07/29 13:23:32;;;;;;;11.55;3.70;;;16.20;99.70;;;;;;5957433;39;20066;-69
2021/07/29 13:27:34;;;;;;;12.65;2.38;;;16.30;99.90;;;;;;5956686;39;20071;-69
2021/07/29 13:31:36;;;;;;;10.10;2.58;;;16.50;99.90;;;;;;5950373;39;20102;-69
2021/07/29 13:35:38;;;;;;;10.55;2.45;;;16.80;99.90;;;;;;5958800;39;20071;-68
2021/07/29 13:39:41;;;;;;;;;;;17.00;99.90;;;;;;5953268;39;20051;-69
2021/07/29 13:43:44;;;;;;;13.35;2.17;;;17.20;99.60;;;;;;5962652;39;20020;-69
2021/07/29 13:47:50;;;;;;;9.93;2.60;;;17.30;99.00;;;;;;5963508;39;20044;-73
2021/07/29 13:51:52;;;;;;;10.32;2.20;;;17.20;99.10;;;;;;5964438;39;20338;-73
2021/07/29 13:55:54;;;;;;;9.57;2.13;;;17.10;99.20;;;;;;5961890;39;20048;-75
2021/07/29 13:59:56;;;;;;;16.20;2.60;;;17.10;99.50;;;;;;5945200;39;20065;-74
2021/07/29 14:03:58;;;;;;;13.38;3.15;;;17.10;99.80;;;;;;5944354;39;20114;-73
2021/07/29 14:08:00;;;;;;;15.77;2.40;;;17.10;99.70;;;;;;5943010;39;20293;-70
2021/07/29 14:12:02;;;;;;;12.63;2.47;;;17.10;99.70;;;;;;5946550;39;20044;-72
2021/07/29 14:16:05;;;;;;;13.27;2.70;;;17.10;99.70;;;;;;5946540;39;20044;-76
2021/07/29 14:24:10;;;;;;;17.67;2.85;;;17.10;99.50;;;;;;5947403;39;20508;-72
2021/07/29 14:28:15;;;;;;;16.23;2.88;;;17.00;99.40;;;;;;5946032;39;20125;-73
2021/07/29 14:32:16;;;;;;;27.70;4.30;;;17.00;99.60;;;;;;5945987;39;20048;-72
2021/07/29 14:36:19;;;;;;;;;;;16.90;99.60;;;;;;5946452;39;20304;-72
2021/07/29 14:40:21;;;;;;;10.63;2.53;;;16.90;99.60;;;;;;5949726;39;19966;-75
2021/07/29 14:44:23;;;;;;;;;;;17.00;99.50;;;;;;5963361;39;20137;-74
2021/07/29 14:52:48;;;;;;;10.32;2.17;;;17.10;98.90;;;;;;5961345;39;20039;-75
2021/07/29 14:56:52;;;;;;;15.10;2.47;;;17.10;98.90;;;;;;5963094;39;20078;-71
2021/07/29 16:10:28;;;;;;;12.30;2.10;;;17.70;97.20;;;;;;5961609;39;20129;-73
2021/07/29 16:14:30;;;;;;;10.00;2.60;;;17.70;97.40;;;;;;5962834;39;20071;-73
2021/07/29 16:18:31;;;;;;;;;;;17.70;97.30;;;;;;5964068;39;20127;-73
2021/07/29 16:22:33;;;;;;;12.32;1.98;;;18.70;97.60;;;;;;5968100;39;19936;-72
2021/07/29 16:26:35;;;;;;;9.43;1.88;;;17.70;97.30;;;;;;5963897;39;20080;-72
2021/07/29 16:30:39;;;;;;;13.50;2.30;;;17.70;97.00;;;;;;5960725;39;20060;-74
2021/07/29 16:34:41;;;;;;;9.60;2.25;;;17.80;96.70;;;;;;5952504;39;20052;-71
2021/07/29 16:38:43;;;;;;;16.23;2.65;;;17.70;97.00;;;;;;5944396;39;20978;-72
2021/07/29 16:42:45;;;;;;;7.40;1.88;;;17.70;97.00;;;;;;5944176;39;20134;-72
2021/07/29 16:46:46;;;;;;;12.43;2.50;;;17.70;96.80;;;;;;5946703;39;20048;-74
2021/07/29 16:50:48;;;;;;;12.70;2.90;;;17.70;96.90;;;;;;5946084;39;20084;-73
2021/07/29 16:54:50;;;;;;;8.57;2.08;;;17.70;97.10;;;;;;5946002;39;20102;-72
2021/07/29 16:58:52;;;;;;;11.50;2.15;;;17.60;97.20;;;;;;5947598;39;20102;-72
2021/07/29 17:02:54;;;;;;;;;;;17.60;97.20;;;;;;5948609;39;20118;-74
2021/07/29 17:06:58;;;;;;;10.65;2.25;;;18.20;97.10;;;;;;5946781;39;19928;-74
2021/07/29 17:11:00;;;;;;;13.38;2.40;;;17.50;96.80;;;;;;5946984;39;20531;-73
2021/07/29 17:15:05;;;;;;;15.27;2.33;;;17.50;97.00;;;;;;5947580;39;20474;-75
2021/07/29 17:19:07;;;;;;;14.02;2.17;;;17.50;96.90;;;;;;5949663;39;20361;-72
2021/07/29 17:23:09;;;;;;;12.30;2.88;;;17.50;97.00;;;;;;5947503;39;20404;-74
2021/07/29 17:27:11;;;;;;;8.48;2.10;;;17.50;97.10;;;;;;5950113;39;20080;-71
2021/07/29 17:31:13;;;;;;;10.63;2.42;;;17.40;97.30;;;;;;5944765;39;20080;-73
2021/07/29 17:35:14;;;;;;;;;;;17.40;97.30;;;;;;5944166;39;20056;-71
2021/07/29 17:39:18;;;;;;;15.80;2.40;;;17.30;97.40;;;;;;5964015;39;19992;-72
2021/07/29 17:43:20;;;;;;;10.13;2.65;;;17.20;98.10;;;;;;5966459;39;20055;-73
2021/07/29 17:47:22;;;;;;;11.10;2.40;;;17.10;98.60;;;;;;5962733;39;20064;-72
2021/07/29 17:51:24;;;;;;;;;;;17.60;99.10;;;;;;5964250;39;20112;-72
2021/07/29 17:55:26;;;;;;;13.20;2.90;;;16.70;99.00;;;;;;5964484;39;20001;-74
2021/07/29 17:59:28;;;;;;;16.40;3.15;;;16.60;99.30;;;;;;5966352;39;20485;-77
2021/07/29 18:03:30;;;;;;;;;;;16.60;99.40;;;;;;5968689;39;20478;-73
2021/07/29 18:07:32;;;;;;;16.38;3.08;;;16.50;99.10;;;;;;5965846;39;19939;-72
2021/07/29 18:11:35;;;;;;;19.02;3.40;;;16.50;99.50;;;;;;5964038;39;20287;-73
2021/07/29 18:15:38;;;;;;;12.48;2.45;;;17.00;99.70;;;;;;5964341;39;20050;-73
2021/07/29 18:19:40;;;;;;;14.77;2.65;;;16.40;99.60;;;;;;5963850;39;20067;-73
2021/07/29 18:23:42;;;;;;;10.52;2.70;;;16.40;99.80;;;;;;5964476;39;20110;-73
2021/07/29 18:27:47;;;;;;;13.93;2.85;;;16.40;99.80;;;;;;5964077;39;20107;-70
2021/07/29 18:31:49;;;;;;;14.10;2.88;;;16.30;99.70;;;;;;5965354;39;20059;-70
2021/07/29 18:35:53;;;;;;;11.25;2.40;;;16.30;99.80;;;;;;5965587;39;20147;-69
2021/07/29 18:39:55;;;;;;;11.70;2.30;;;16.30;99.70;;;;;;5966046;39;20310;-70
2021/07/29 18:43:57;;;;;;;;;;;16.20;99.70;;;;;;5963173;39;20164;-70
2021/07/29 18:47:59;;;;;;;11.47;2.43;;;16.20;99.40;;;;;;5965085;39;20279;-73
2021/07/29 18:52:02;;;;;;;12.68;2.45;;;16.20;99.60;;;;;;5962582;39;20107;-72
2021/07/29 18:56:04;;;;;;;11.38;2.70;;;16.20;99.70;;;;;;5960370;39;20148;-71
2021/07/29 19:00:06;;;;;;;8.20;2.38;;;16.20;99.70;;;;;;5947693;39;20112;-70
2021/07/29 19:04:08;;;;;;;13.65;2.75;;;16.20;99.70;;;;;;5955574;39;20059;-69
2021/07/29 19:08:10;;;;;;;11.30;2.70;;;16.20;99.70;;;;;;5954599;39;20579;-69
2021/07/29 19:12:13;;;;;;;;;;;16.10;99.80;;;;;;5951001;39;20063;-69
2021/07/29 19:16:16;;;;;;;;;;;16.10;99.40;;;;;;5964145;39;19943;-69
2021/07/29 19:20:20;;;;;;;16.45;3.20;;;16.10;99.50;;;;;;5959811;39;19932;-69
2021/07/29 19:24:22;;;;;;;16.92;3.17;;;16.10;99.70;;;;;;5961760;39;20293;-70
2021/07/29 19:28:24;;;;;;;17.77;2.67;;;16.10;99.90;;;;;;5962543;39;20135;-70
2021/07/29 19:32:26;;;;;;;16.90;3.25;;;16.00;99.90;;;;;;5961147;39;20041;-69
2021/07/29 19:36:30;;;;;;;12.90;2.42;;;16.00;99.90;;;;;;5959534;39;20078;-69
2021/07/29 19:40:36;;;;;;;13.20;2.88;;;16.00;99.90;;;;;;5959006;39;20053;-71
2021/07/29 19:44:38;;;;;;;12.60;3.00;;;16.00;99.90;;;;;;5961052;39;20447;-72
2021/07/29 19:48:40;;;;;;;;;;;15.90;99.90;;;;;;5963887;39;20067;-72
2021/07/29 19:52:42;;;;;;;12.25;3.20;;;15.90;99.70;;;;;;5961183;39;19936;-71
2021/07/29 19:56:43;;;;;;;15.40;2.80;;;15.90;99.90;;;;;;5961382;39;20083;-70
2021/07/29 20:00:45;;;;;;;14.90;3.38;;;15.80;99.90;;;;;;5957844;39;20400;-69
2021/07/29 20:04:47;;;;;;;;;;;15.80;99.90;;;;;;5960104;39;20804;-70
2021/07/29 20:08:49;;;;;;;12.43;3.23;;;15.80;99.70;;;;;;5953561;39;19940;-69
2021/07/29 20:12:51;;;;;;;18.60;3.08;;;15.80;99.90;;;;;;5957398;39;20485;-69
2021/07/29 20:16:53;;;;;;;9.70;2.47;;;15.80;99.90;;;;;;5957760;39;20420;-69
2021/07/29 20:20:55;;;;;;;14.18;3.65;;;15.80;99.90;;;;;;5959322;39;20052;-69
2021/07/29 20:24:59;;;;;;;15.40;2.40;;;15.80;99.90;;;;;;5960136;39;20036;-70
2021/07/29 20:29:01;;;;;;;11.50;2.75;;;15.80;99.90;;;;;;5957472;39;20088;-70
2021/07/29 20:33:04;;;;;;;14.13;2.80;;;15.90;99.90;;;;;;5959693;39;20068;-70
2021/07/29 20:37:06;;;;;;;14.77;2.95;;;15.80;99.90;;;;;;5971155;39;20052;-69
2021/07/29 20:41:08;;;;;;;14.27;3.35;;;15.90;99.90;;;;;;5959958;39;20158;-69
2021/07/29 20:45:10;;;;;;;13.73;3.10;;;15.90;99.90;;;;;;5953130;39;20076;-69
2021/07/29 20:49:12;;;;;;;13.75;3.20;;;15.90;99.90;;;;;;5958965;39;20412;-69
2021/07/29 20:53:14;;;;;;;12.73;2.90;;;15.90;99.90;;;;;;5953701;39;20044;-69
2021/07/29 20:57:16;;;;;;;15.80;4.05;;;15.80;99.90;;;;;;5946345;39;20716;-69
2021/07/29 21:01:18;;;;;;;15.52;3.60;;;15.70;99.90;;;;;;5959224;39;20084;-70
2021/07/29 21:05:22;;;;;;;15.57;3.75;;;15.70;99.90;;;;;;5943650;39;20617;-69
2021/07/29 21:09:23;;;;;;;10.20;2.67;;;15.70;99.90;;;;;;5940520;39;20058;-69
2021/07/29 21:13:27;;;;;;;13.32;3.20;;;15.70;99.90;;;;;;5940216;39;20128;-69
2021/07/29 21:17:29;;;;;;;12.50;2.40;;;15.70;99.90;;;;;;5938123;39;20107;-69
2021/07/29 21:21:32;;;;;;;14.63;3.08;;;15.70;99.90;;;;;;5939143;39;20056;-69
2021/07/29 21:25:34;;;;;;;11.20;2.45;;;15.70;99.90;;;;;;5936862;39;20364;-68
2021/07/29 21:29:37;;;;;;;14.48;2.90;;;15.70;99.90;;;;;;5939747;39;20064;-69
2021/07/29 21:33:39;;;;;;;12.70;3.33;;;15.60;99.90;;;;;;5939749;39;20099;-68
2021/07/29 21:37:41;;;;;;;13.75;2.90;;;15.70;99.90;;;;;;5940102;39;20467;-69
2021/07/29 21:41:42;;;;;;;12.85;3.17;;;15.60;99.90;;;;;;5942242;39;20048;-69
2021/07/29 21:45:44;;;;;;;12.13;2.58;;;15.60;99.90;;;;;;5944161;39;20066;-69
2021/07/29 21:49:46;;;;;;;17.33;3.15;;;15.60;99.90;;;;;;5942768;39;20136;-70
2021/07/29 21:53:48;;;;;;;12.02;2.25;;;15.70;99.90;;;;;;5950536;39;20127;-70
2021/07/29 21:57:51;;;;;;;15.70;2.65;;;15.70;99.90;;;;;;5944926;39;20125;-69
2021/07/29 22:01:53;;;;;;;11.02;3.00;;;15.70;99.90;;;;;;5948049;39;20058;-69
2021/07/29 22:05:55;;;;;;;14.60;3.25;;;15.70;99.90;;;;;;5958004;39;20107;-69
2021/07/29 22:09:57;;;;;;;;;;;15.80;99.90;;;;;;5960227;39;20454;-71
2021/07/29 22:13:59;;;;;;;17.67;2.80;;;15.70;99.90;;;;;;5960291;39;19936;-72
2021/07/29 22:18:01;;;;;;;14.50;3.58;;;15.90;99.90;;;;;;5942866;39;20049;-72
2021/07/29 22:22:03;;;;;;;14.10;2.92;;;15.80;99.90;;;;;;5944008;39;20463;-72
2021/07/29 22:26:07;;;;;;;10.32;2.58;;;15.80;99.90;;;;;;5943828;39;20052;-69
2021/07/29 22:30:09;;;;;;;11.60;2.10;;;15.80;99.90;;;;;;5941896;39;20072;-69
2021/07/29 22:34:12;;;;;;;12.57;2.72;;;15.90;99.90;;;;;;5943946;39;20052;-69